sensor_id;sensor_type;location;lat;lon;timestamp;pressure;altitude;pressure_sealevel;temperature;humidity
43818;BME280;29868;47.360;18.984;2023-01-27T08:34:53;100307.31;;;2.09;100.00
43818;BME280;29868;47.360;18.984;2023-01-27T08:37:19;100306.63;;;2.13;100.00
43818;BME280;29868;47.360;18.984;2023-01-27T08:39:44;100313.44;;;1.95;100.00
43818;BME280;29868;47.360;18.984;2023-01-27T08:42:10;100305.75;;;2.13;100.00
43818;BME280;29868;47.360;18.984;2023-01-27T08:44:35;100307.34;;;2.11;100.00
43818;BME280;29868;47.360;18.984;2023-01-27T08:47:01;100304.22;;;2.16;100.00
43818;BME280;29868;47.360;18.984;2023-01-27T08:49:26;100317.81;;;2.15;100.00
43818;BME280;29868;47.360;18.984;2023-01-27T08:51:51;100318.47;;;2.11;100.00
43818;BME280;29868;47.360;18.984;2023-01-27T08:54:17;100323.31;;;2.05;100.00
43818;BME280;29868;47.360;18.984;2023-01-27T08:56:42;100324.56;;;2.13;100.00
43818;BME280;29868;47.360;18.984;2023-01-27T08:59:08;100332.41;;;2.16;100.00
43818;BME280;29868;47.360;18.984;2023-01-27T09:01:33;100322.66;;;2.27;100.00
43818;BME280;29868;47.360;18.984;2023-01-27T09:04:00;100323.63;;;2.29;100.00
43818;BME280;29868;47.360;18.984;2023-01-27T09:06:25;100329.03;;;2.17;100.00
43818;BME280;29868;47.360;18.984;2023-01-27T09:08:51;100326.63;;;2.21;100.00
43818;BME280;29868;47.360;18.984;2023-01-27T09:11:40;100329.09;;;2.19;100.00
43818;BME280;29868;47.360;18.984;2023-01-27T09:14:06;100327.13;;;2.13;100.00
43818;BME280;29868;47.360;18.984;2023-01-27T09:16:32;100336.25;;;2.08;100.00
43818;BME280;29868;47.360;18.984;2023-01-27T09:18:57;100330.53;;;1.96;100.00
43818;BME280;29868;47.360;18.984;2023-01-27T09:21:24;100336.19;;;2.07;100.00
43818;BME280;29868;47.360;18.984;2023-01-27T09:23:49;100336.78;;;2.01;100.00
43818;BME280;29868;47.360;18.984;2023-01-27T09:26:15;100331.28;;;2.11;100.00
43818;BME280;29868;47.360;18.984;2023-01-27T09:28:40;100331.81;;;2.22;100.00
43818;BME280;29868;47.360;18.984;2023-01-27T09:31:06;100330.50;;;2.30;100.00
43818;BME280;29868;47.360;18.984;2023-01-27T09:33:35;100336.50;;;2.31;100.00
43818;BME280;29868;47.360;18.984;2023-01-27T09:36:07;100334.91;;;2.33;100.00
43818;BME280;29868;47.360;18.984;2023-01-27T09:38:38;100330.81;;;2.54;100.00
43818;BME280;29868;47.360;18.984;2023-01-27T09:46:44;100337.38;;;2.67;100.00
43818;BME280;29868;47.360;18.984;2023-01-27T09:57:46;100327.78;;;2.27;100.00
43818;BME280;29868;47.360;18.984;2023-01-27T10:11:17;100325.41;;;1.96;100.00
43818;BME280;29868;47.360;18.984;2023-01-27T10:16:48;100332.72;;;1.88;100.00
43818;BME280;29868;47.360;18.984;2023-01-27T10:27:21;100327.41;;;2.02;100.00
43818;BME280;29868;47.360;18.984;2023-01-27T10:29:59;100327.44;;;1.85;100.00
43818;BME280;29868;47.360;18.984;2023-01-27T10:32:33;100323.59;;;1.59;100.00
43818;BME280;29868;47.360;18.984;2023-01-27T10:35:17;100320.72;;;1.53;100.00
43818;BME280;29868;47.360;18.984;2023-01-27T10:45:34;100314.63;;;1.51;100.00
43818;BME280;29868;47.360;18.984;2023-01-27T10:50:48;100309.25;;;1.63;100.00
43818;BME280;29868;47.360;18.984;2023-01-27T10:53:24;100303.34;;;1.48;100.00
43818;BME280;29868;47.360;18.984;2023-01-27T11:01:06;100307.81;;;1.68;100.00
43818;BME280;29868;47.360;18.984;2023-01-27T11:03:57;100298.16;;;1.46;100.00
43818;BME280;29868;47.360;18.984;2023-01-27T11:06:29;100297.41;;;1.65;100.00
43818;BME280;29868;47.360;18.984;2023-01-27T11:09:16;100291.75;;;1.70;100.00
43818;BME280;29868;47.360;18.984;2023-01-27T11:11:49;100289.66;;;1.63;100.00
43818;BME280;29868;47.360;18.984;2023-01-27T11:14:23;100293.34;;;1.68;100.00
43818;BME280;29868;47.360;18.984;2023-01-27T11:17:02;100289.13;;;1.87;100.00
43818;BME280;29868;47.360;18.984;2023-01-27T11:19:45;100288.66;;;1.78;100.00
43818;BME280;29868;47.360;18.984;2023-01-27T11:22:20;100288.09;;;1.83;100.00
43818;BME280;29868;47.360;18.984;2023-01-27T11:25:16;100286.75;;;1.74;100.00
43818;BME280;29868;47.360;18.984;2023-01-27T11:30:27;100279.03;;;1.90;100.00
43818;BME280;29868;47.360;18.984;2023-01-27T11:33:10;100279.91;;;1.90;100.00
43818;BME280;29868;47.360;18.984;2023-01-27T11:35:37;100272.59;;;1.98;100.00
43818;BME280;29868;47.360;18.984;2023-01-27T11:38:03;100264.69;;;2.11;100.00
43818;BME280;29868;47.360;18.984;2023-01-27T11:40:34;100266.47;;;2.12;100.00
43818;BME280;29868;47.360;18.984;2023-01-27T11:43:01;100267.47;;;2.16;100.00
43818;BME280;29868;47.360;18.984;2023-01-27T11:45:32;100250.94;;;2.09;100.00
43818;BME280;29868;47.360;18.984;2023-01-27T11:48:00;100253.69;;;1.96;100.00
43818;BME280;29868;47.360;18.984;2023-01-27T11:50:30;100254.06;;;1.86;100.00
43818;BME280;29868;47.360;18.984;2023-01-27T11:53:08;100251.91;;;2.31;100.00
43818;BME280;29868;47.360;18.984;2023-01-27T11:55:38;100243.72;;;2.38;100.00
43818;BME280;29868;47.360;18.984;2023-01-27T11:58:21;100245.88;;;2.29;100.00
43818;BME280;29868;47.360;18.984;2023-01-27T12:00:55;100242.84;;;2.19;100.00
43818;BME280;29868;47.360;18.984;2023-01-27T12:03:27;100237.75;;;2.02;100.00
43818;BME280;29868;47.360;18.984;2023-01-27T12:05:55;100231.16;;;2.07;100.00
43818;BME280;29868;47.360;18.984;2023-01-27T12:08:41;100229.78;;;2.51;100.00
43818;BME280;29868;47.360;18.984;2023-01-27T12:11:25;100229.41;;;2.24;100.00
43818;BME280;29868;47.360;18.984;2023-01-27T12:16:23;100227.47;;;2.19;100.00
43818;BME280;29868;47.360;18.984;2023-01-27T12:18:54;100219.94;;;2.23;100.00
43818;BME280;29868;47.360;18.984;2023-01-27T12:23:58;100218.84;;;2.17;100.00
43818;BME280;29868;47.360;18.984;2023-01-27T12:26:33;100211.53;;;2.07;100.00
43818;BME280;29868;47.360;18.984;2023-01-27T12:29:04;100207.78;;;2.01;100.00
43818;BME280;29868;47.360;18.984;2023-01-27T12:31:32;100205.53;;;2.07;100.00
43818;BME280;29868;47.360;18.984;2023-01-27T12:34:17;100204.31;;;1.99;100.00
43818;BME280;29868;47.360;18.984;2023-01-27T12:36:45;100201.69;;;1.97;100.00
43818;BME280;29868;47.360;18.984;2023-01-27T12:41:53;100209.47;;;2.18;100.00
43818;BME280;29868;47.360;18.984;2023-01-27T12:44:19;100197.69;;;2.22;100.00
43818;BME280;29868;47.360;18.984;2023-01-27T12:47:18;100209.47;;;2.18;100.00
43818;BME280;29868;47.360;18.984;2023-01-27T12:49:45;100197.97;;;2.28;100.00
43818;BME280;29868;47.360;18.984;2023-01-27T12:52:18;100203.63;;;2.21;100.00
43818;BME280;29868;47.360;18.984;2023-01-27T12:54:44;100206.59;;;2.30;100.00
43818;BME280;29868;47.360;18.984;2023-01-27T12:57:18;100202.41;;;2.12;100.00
43818;BME280;29868;47.360;18.984;2023-01-27T12:59:50;100203.09;;;2.28;100.00
43818;BME280;29868;47.360;18.984;2023-01-27T13:02:22;100200.84;;;2.16;100.00
43818;BME280;29868;47.360;18.984;2023-01-27T13:05:02;100208.66;;;2.37;100.00
43818;BME280;29868;47.360;18.984;2023-01-27T13:07:42;100209.88;;;2.45;100.00
43818;BME280;29868;47.360;18.984;2023-01-27T13:10:20;100206.44;;;2.44;100.00
43818;BME280;29868;47.360;18.984;2023-01-27T13:15:23;100206.69;;;2.31;100.00
43818;BME280;29868;47.360;18.984;2023-01-27T13:17:51;100203.88;;;2.27;100.00
43818;BME280;29868;47.360;18.984;2023-01-27T13:20:21;100217.09;;;2.16;100.00
43818;BME280;29868;47.360;18.984;2023-01-27T13:23:05;100216.66;;;2.25;100.00
43818;BME280;29868;47.360;18.984;2023-01-27T13:25:42;100222.19;;;2.34;100.00
43818;BME280;29868;47.360;18.984;2023-01-27T13:28:21;100232.84;;;2.24;100.00
43818;BME280;29868;47.360;18.984;2023-01-27T13:30:50;100214.75;;;2.21;100.00
43818;BME280;29868;47.360;18.984;2023-01-27T13:33:42;100218.44;;;2.46;100.00
43818;BME280;29868;47.360;18.984;2023-01-27T13:39:23;100226.72;;;2.58;100.00
43818;BME280;29868;47.360;18.984;2023-01-27T13:44:42;100226.53;;;2.92;100.00
43818;BME280;29868;47.360;18.984;2023-01-27T13:47:21;100224.47;;;3.04;100.00
43818;BME280;29868;47.360;18.984;2023-01-27T13:49:56;100229.47;;;3.21;100.00
43818;BME280;29868;47.360;18.984;2023-01-27T13:52:24;100231.81;;;3.16;100.00
43818;BME280;29868;47.360;18.984;2023-01-27T13:54:51;100232.34;;;3.28;100.00
43818;BME280;29868;47.360;18.984;2023-01-27T13:57:35;100232.28;;;3.27;100.00
43818;BME280;29868;47.360;18.984;2023-01-27T14:00:21;100237.72;;;2.94;100.00
43818;BME280;29868;47.360;18.984;2023-01-27T14:05:57;100233.06;;;3.05;100.00
43818;BME280;29868;47.360;18.984;2023-01-27T14:22:11;100229.06;;;2.73;100.00
43818;BME280;29868;47.360;18.984;2023-01-27T14:24:55;100228.66;;;2.63;100.00
43818;BME280;29868;47.360;18.984;2023-01-27T14:27:41;100231.84;;;2.58;100.00
43818;BME280;29868;47.360;18.984;2023-01-27T14:38:29;100219.31;;;2.46;100.00
43818;BME280;29868;47.360;18.984;2023-01-27T14:44:05;100219.41;;;2.30;100.00
43818;BME280;29868;47.360;18.984;2023-01-27T14:52:29;100222.66;;;2.26;100.00
43818;BME280;29868;47.360;18.984;2023-01-27T14:55:16;100223.84;;;2.14;100.00
43818;BME280;29868;47.360;18.984;2023-01-27T15:17:45;100222.22;;;2.16;100.00
43818;BME280;29868;47.360;18.984;2023-01-27T15:26:15;100217.84;;;1.96;100.00
43818;BME280;29868;47.360;18.984;2023-01-27T15:28:43;100221.94;;;2.10;100.00
43818;BME280;29868;47.360;18.984;2023-01-27T15:31:19;100226.41;;;2.14;100.00
43818;BME280;29868;47.360;18.984;2023-01-27T15:44:26;100235.84;;;1.98;100.00
43818;BME280;29868;47.360;18.984;2023-01-27T15:47:01;100236.28;;;2.07;100.00
43818;BME280;29868;47.360;18.984;2023-01-27T15:49:35;100235.25;;;2.03;100.00
43818;BME280;29868;47.360;18.984;2023-01-27T15:52:33;100242.50;;;1.94;100.00
43818;BME280;29868;47.360;18.984;2023-01-27T15:55:02;100236.44;;;1.92;100.00
43818;BME280;29868;47.360;18.984;2023-01-27T15:57:34;100235.25;;;2.03;100.00
43818;BME280;29868;47.360;18.984;2023-01-27T16:02:59;100235.09;;;2.00;100.00
43818;BME280;29868;47.360;18.984;2023-01-27T16:05:34;100238.91;;;2.08;100.00
43818;BME280;29868;47.360;18.984;2023-01-27T16:08:04;100240.22;;;2.00;100.00
43818;BME280;29868;47.360;18.984;2023-01-27T16:10:34;100252.09;;;1.98;100.00
43818;BME280;29868;47.360;18.984;2023-01-27T16:13:26;100250.63;;;2.03;100.00
43818;BME280;29868;47.360;18.984;2023-01-27T16:18:47;100255.19;;;2.09;100.00
43818;BME280;29868;47.360;18.984;2023-01-27T16:23:59;100258.66;;;1.93;100.00
43818;BME280;29868;47.360;18.984;2023-01-27T16:26:51;100267.16;;;1.92;100.00
43818;BME280;29868;47.360;18.984;2023-01-27T16:29:28;100267.88;;;1.89;100.00
43818;BME280;29868;47.360;18.984;2023-01-27T16:32:05;100271.84;;;2.01;100.00
43818;BME280;29868;47.360;18.984;2023-01-27T16:34:38;100269.22;;;1.99;100.00
43818;BME280;29868;47.360;18.984;2023-01-27T16:37:26;100273.69;;;2.03;100.00
43818;BME280;29868;47.360;18.984;2023-01-27T16:40:03;100286.63;;;1.88;100.00
43818;BME280;29868;47.360;18.984;2023-01-27T16:42:37;100286.06;;;1.94;100.00
43818;BME280;29868;47.360;18.984;2023-01-27T16:45:18;100288.91;;;2.00;100.00
43818;BME280;29868;47.360;18.984;2023-01-27T16:47:49;100295.34;;;1.92;100.00
43818;BME280;29868;47.360;18.984;2023-01-27T16:50:36;100294.13;;;2.02;100.00
43818;BME280;29868;47.360;18.984;2023-01-27T16:53:03;100288.25;;;2.04;100.00
43818;BME280;29868;47.360;18.984;2023-01-27T16:55:29;100289.72;;;1.99;100.00
43818;BME280;29868;47.360;18.984;2023-01-27T16:57:56;100296.16;;;1.91;100.00
43818;BME280;29868;47.360;18.984;2023-01-27T17:00:28;100295.06;;;1.86;100.00
43818;BME280;29868;47.360;18.984;2023-01-27T17:02:56;100288.31;;;1.88;100.00
43818;BME280;29868;47.360;18.984;2023-01-27T17:05:23;100282.53;;;1.92;100.00
43818;BME280;29868;47.360;18.984;2023-01-27T17:10:48;100295.84;;;1.85;100.00
43818;BME280;29868;47.360;18.984;2023-01-27T17:13:25;100289.41;;;1.93;100.00
43818;BME280;29868;47.360;18.984;2023-01-27T17:15:52;100293.59;;;1.91;100.00
43818;BME280;29868;47.360;18.984;2023-01-27T17:18:18;100292.78;;;1.92;100.00
43818;BME280;29868;47.360;18.984;2023-01-27T17:20:45;100291.09;;;1.75;100.00
43818;BME280;29868;47.360;18.984;2023-01-27T17:23:23;100298.00;;;1.93;100.00
43818;BME280;29868;47.360;18.984;2023-01-27T17:25:53;100297.34;;;1.98;100.00
43818;BME280;29868;47.360;18.984;2023-01-27T17:28:24;100303.75;;;1.89;100.00
43818;BME280;29868;47.360;18.984;2023-01-27T17:30:51;100300.97;;;1.85;100.00
43818;BME280;29868;47.360;18.984;2023-01-27T17:33:19;100293.38;;;1.86;100.00
43818;BME280;29868;47.360;18.984;2023-01-27T17:35:54;100294.31;;;1.88;100.00
43818;BME280;29868;47.360;18.984;2023-01-27T17:38:22;100294.25;;;1.87;100.00
43818;BME280;29868;47.360;18.984;2023-01-27T17:40:50;100300.41;;;1.90;100.00
43818;BME280;29868;47.360;18.984;2023-01-27T17:43:24;100292.41;;;1.84;100.00
43818;BME280;29868;47.360;18.984;2023-01-27T17:46:12;100303.25;;;1.79;100.00
43818;BME280;29868;47.360;18.984;2023-01-27T17:48:43;100298.25;;;1.82;100.00
43818;BME280;29868;47.360;18.984;2023-01-27T17:51:10;100299.16;;;1.82;100.00
43818;BME280;29868;47.360;18.984;2023-01-27T17:53:40;100298.91;;;1.78;100.00
43818;BME280;29868;47.360;18.984;2023-01-27T17:56:30;100303.94;;;1.76;100.00
43818;BME280;29868;47.360;18.984;2023-01-27T17:59:20;100307.34;;;1.59;100.00
43818;BME280;29868;47.360;18.984;2023-01-27T18:01:48;100307.22;;;1.74;100.00
43818;BME280;29868;47.360;18.984;2023-01-27T18:04:16;100312.50;;;1.77;100.00
43818;BME280;29868;47.360;18.984;2023-01-27T18:06:41;100311.19;;;1.67;100.00
43818;BME280;29868;47.360;18.984;2023-01-27T18:09:18;100312.94;;;1.68;100.00
43818;BME280;29868;47.360;18.984;2023-01-27T18:11:58;100309.72;;;1.72;100.00
43818;BME280;29868;47.360;18.984;2023-01-27T18:14:24;100305.47;;;1.73;100.00
43818;BME280;29868;47.360;18.984;2023-01-27T18:17:04;100302.44;;;1.80;100.00
43818;BME280;29868;47.360;18.984;2023-01-27T18:19:30;100311.03;;;1.64;100.00
43818;BME280;29868;47.360;18.984;2023-01-27T18:22:12;100312.13;;;1.69;100.00
43818;BME280;29868;47.360;18.984;2023-01-27T18:24:39;100311.69;;;1.60;100.00
43818;BME280;29868;47.360;18.984;2023-01-27T18:27:30;100315.81;;;1.58;100.00
43818;BME280;29868;47.360;18.984;2023-01-27T18:30:00;100321.03;;;1.59;100.00
43818;BME280;29868;47.360;18.984;2023-01-27T18:32:35;100318.38;;;1.58;100.00
43818;BME280;29868;47.360;18.984;2023-01-27T18:35:01;100319.91;;;1.54;100.00
43818;BME280;29868;47.360;18.984;2023-01-27T18:37:33;100318.78;;;1.65;100.00
43818;BME280;29868;47.360;18.984;2023-01-27T18:40:01;100315.41;;;1.66;100.00
43818;BME280;29868;47.360;18.984;2023-01-27T18:42:29;100315.28;;;1.63;100.00
43818;BME280;29868;47.360;18.984;2023-01-27T18:44:56;100318.31;;;1.56;100.00
43818;BME280;29868;47.360;18.984;2023-01-27T18:47:26;100317.47;;;1.74;100.00
43818;BME280;29868;47.360;18.984;2023-01-27T18:52:22;100320.84;;;1.73;100.00
43818;BME280;29868;47.360;18.984;2023-01-27T18:54:47;100321.56;;;1.70;100.00
43818;BME280;29868;47.360;18.984;2023-01-27T18:57:20;100327.59;;;1.70;100.00
43818;BME280;29868;47.360;18.984;2023-01-27T18:59:45;100325.63;;;1.83;100.00
43818;BME280;29868;47.360;18.984;2023-01-27T19:02:13;100324.38;;;1.75;100.00
43818;BME280;29868;47.360;18.984;2023-01-27T19:04:40;100328.03;;;1.80;100.00
43818;BME280;29868;47.360;18.984;2023-01-27T19:07:16;100325.31;;;1.77;100.00
43818;BME280;29868;47.360;18.984;2023-01-27T19:09:43;100327.72;;;1.74;100.00
43818;BME280;29868;47.360;18.984;2023-01-27T19:12:10;100323.06;;;1.83;100.00
43818;BME280;29868;47.360;18.984;2023-01-27T19:14:35;100323.72;;;1.79;100.00
43818;BME280;29868;47.360;18.984;2023-01-27T19:17:03;100324.50;;;1.78;100.00
43818;BME280;29868;47.360;18.984;2023-01-27T19:19:30;100322.59;;;1.74;100.00
43818;BME280;29868;47.360;18.984;2023-01-27T19:21:55;100320.19;;;1.77;100.00
43818;BME280;29868;47.360;18.984;2023-01-27T19:24:20;100318.81;;;1.83;100.00
43818;BME280;29868;47.360;18.984;2023-01-27T19:26:46;100320.19;;;1.77;100.00
43818;BME280;29868;47.360;18.984;2023-01-27T19:29:11;100326.72;;;1.88;100.00
43818;BME280;29868;47.360;18.984;2023-01-27T19:31:37;100324.66;;;1.81;100.00
43818;BME280;29868;47.360;18.984;2023-01-27T19:34:02;100328.34;;;1.86;100.00
43818;BME280;29868;47.360;18.984;2023-01-27T19:36:31;100334.34;;;1.86;100.00
43818;BME280;29868;47.360;18.984;2023-01-27T19:39:04;100334.19;;;1.83;100.00
43818;BME280;29868;47.360;18.984;2023-01-27T19:41:34;100333.59;;;1.89;100.00
43818;BME280;29868;47.360;18.984;2023-01-27T19:44:00;100340.19;;;1.84;100.00
43818;BME280;29868;47.360;18.984;2023-01-27T19:46:25;100345.69;;;1.91;100.00
43818;BME280;29868;47.360;18.984;2023-01-27T19:48:51;100344.66;;;1.88;100.00
43818;BME280;29868;47.360;18.984;2023-01-27T19:51:17;100352.38;;;1.72;100.00
43818;BME280;29868;47.360;18.984;2023-01-27T19:53:43;100348.13;;;1.72;100.00
43818;BME280;29868;47.360;18.984;2023-01-27T19:56:14;100347.81;;;1.82;100.00
43818;BME280;29868;47.360;18.984;2023-01-27T19:58:43;100354.84;;;1.86;100.00
43818;BME280;29868;47.360;18.984;2023-01-27T20:01:10;100352.19;;;1.85;100.00
43818;BME280;29868;47.360;18.984;2023-01-27T20:03:35;100359.63;;;1.80;100.00
43818;BME280;29868;47.360;18.984;2023-01-27T20:06:01;100362.38;;;1.83;100.00
43818;BME280;29868;47.360;18.984;2023-01-27T20:08:27;100358.44;;;1.90;100.00
43818;BME280;29868;47.360;18.984;2023-01-27T20:10:52;100363.72;;;1.77;100.00
43818;BME280;29868;47.360;18.984;2023-01-27T20:13:19;100362.25;;;1.82;100.00
43818;BME280;29868;47.360;18.984;2023-01-27T20:15:45;100361.66;;;1.86;100.00
43818;BME280;29868;47.360;18.984;2023-01-27T20:18:15;100365.22;;;1.89;100.00
43818;BME280;29868;47.360;18.984;2023-01-27T20:20:42;100370.50;;;1.92;100.00
43818;BME280;29868;47.360;18.984;2023-01-27T20:23:10;100364.03;;;1.83;100.00
43818;BME280;29868;47.360;18.984;2023-01-27T20:25:36;100370.75;;;1.81;100.00
43818;BME280;29868;47.360;18.984;2023-01-27T20:28:02;100362.84;;;1.76;100.00
43818;BME280;29868;47.360;18.984;2023-01-27T20:30:30;100363.25;;;1.84;100.00
43818;BME280;29868;47.360;18.984;2023-01-27T20:33:02;100369.88;;;1.80;100.00
43818;BME280;29868;47.360;18.984;2023-01-27T20:35:28;100364.22;;;1.86;100.00
43818;BME280;29868;47.360;18.984;2023-01-27T20:37:54;100369.94;;;1.82;100.00
43818;BME280;29868;47.360;18.984;2023-01-27T20:40:22;100369.63;;;1.92;100.00
43818;BME280;29868;47.360;18.984;2023-01-27T20:42:48;100369.47;;;1.89;100.00
43818;BME280;29868;47.360;18.984;2023-01-27T20:45:14;100369.16;;;1.83;100.00
43818;BME280;29868;47.360;18.984;2023-01-27T20:47:40;100369.16;;;1.83;100.00
43818;BME280;29868;47.360;18.984;2023-01-27T20:50:07;100375.88;;;1.81;100.00
43818;BME280;29868;47.360;18.984;2023-01-27T20:52:33;100378.19;;;1.92;100.00
43818;BME280;29868;47.360;18.984;2023-01-27T20:54:59;100380.28;;;1.83;100.00
43818;BME280;29868;47.360;18.984;2023-01-27T20:57:24;100368.59;;;1.88;100.00
43818;BME280;29868;47.360;18.984;2023-01-27T20:59:51;100375.88;;;1.97;100.00
43818;BME280;29868;47.360;18.984;2023-01-27T21:02:17;100379.06;;;1.93;100.00
43818;BME280;29868;47.360;18.984;2023-01-27T21:04:43;100382.44;;;1.92;100.00
43818;BME280;29868;47.360;18.984;2023-01-27T21:07:09;100388.13;;;1.86;100.00
43818;BME280;29868;47.360;18.984;2023-01-27T21:09:35;100384.69;;;1.86;100.00
43818;BME280;29868;47.360;18.984;2023-01-27T21:12:00;100383.25;;;1.91;100.00
43818;BME280;29868;47.360;18.984;2023-01-27T21:14:26;100383.88;;;1.87;100.00
43818;BME280;29868;47.360;18.984;2023-01-27T21:16:52;100381.63;;;1.93;100.00
43818;BME280;29868;47.360;18.984;2023-01-27T21:19:18;100379.22;;;1.96;100.00
43818;BME280;29868;47.360;18.984;2023-01-27T21:21:44;100383.47;;;1.95;100.00
43818;BME280;29868;47.360;18.984;2023-01-27T21:24:11;100380.44;;;1.86;100.00
43818;BME280;29868;47.360;18.984;2023-01-27T21:26:36;100380.84;;;1.94;100.00
43818;BME280;29868;47.360;18.984;2023-01-27T21:29:05;100381.50;;;1.90;100.00
43818;BME280;29868;47.360;18.984;2023-01-27T21:31:31;100375.56;;;1.91;100.00
43818;BME280;29868;47.360;18.984;2023-01-27T21:33:59;100376.75;;;1.98;100.00
43818;BME280;29868;47.360;18.984;2023-01-27T21:36:25;100375.88;;;1.81;100.00
43818;BME280;29868;47.360;18.984;2023-01-27T21:38:50;100377.25;;;1.90;100.00
43818;BME280;29868;47.360;18.984;2023-01-27T21:41:20;100375.41;;;1.88;100.00
43818;BME280;29868;47.360;18.984;2023-01-27T21:44:12;100377.16;;;1.89;100.00
43818;BME280;29868;47.360;18.984;2023-01-27T21:46:56;100372.50;;;1.82;100.00
43818;BME280;29868;47.360;18.984;2023-01-27T21:49:22;100378.59;;;1.84;100.00
43818;BME280;29868;47.360;18.984;2023-01-27T21:51:47;100377.03;;;1.86;100.00
43818;BME280;29868;47.360;18.984;2023-01-27T21:54:12;100374.59;;;1.89;100.00
43818;BME280;29868;47.360;18.984;2023-01-27T21:56:38;100386.06;;;1.79;100.00
43818;BME280;29868;47.360;18.984;2023-01-27T21:59:03;100389.34;;;1.77;100.00
43818;BME280;29868;47.360;18.984;2023-01-27T22:01:29;100395.50;;;1.80;100.00
43818;BME280;29868;47.360;18.984;2023-01-27T22:03:54;100388.38;;;1.91;100.00
43818;BME280;29868;47.360;18.984;2023-01-27T22:06:19;100388.13;;;1.86;100.00
43818;BME280;29868;47.360;18.984;2023-01-27T22:08:48;100382.53;;;1.93;100.00
43818;BME280;29868;47.360;18.984;2023-01-27T22:11:15;100384.34;;;1.96;100.00
43818;BME280;29868;47.360;18.984;2023-01-27T22:13:40;100387.50;;;1.74;100.00
43818;BME280;29868;47.360;18.984;2023-01-27T22:16:06;100388.47;;;1.76;100.00
43818;BME280;29868;47.360;18.984;2023-01-27T22:18:34;100386.63;;;1.90;100.00
43818;BME280;29868;47.360;18.984;2023-01-27T22:21:00;100387.50;;;1.90;100.00
43818;BME280;29868;47.360;18.984;2023-01-27T22:23:26;100390.59;;;1.85;100.00
43818;BME280;29868;47.360;18.984;2023-01-27T22:25:52;100392.13;;;1.81;100.00
43818;BME280;29868;47.360;18.984;2023-01-27T22:28:18;100381.16;;;1.84;100.00
43818;BME280;29868;47.360;18.984;2023-01-27T22:30:44;100388.13;;;1.86;100.00
43818;BME280;29868;47.360;18.984;2023-01-27T22:33:11;100387.25;;;1.86;100.00
43818;BME280;29868;47.360;18.984;2023-01-27T22:35:37;100386.63;;;1.90;100.00
43818;BME280;29868;47.360;18.984;2023-01-27T22:38:03;100376.69;;;1.80;100.00
43818;BME280;29868;47.360;18.984;2023-01-27T22:40:29;100380.13;;;1.80;100.00
43818;BME280;29868;47.360;18.984;2023-01-27T22:42:55;100380.44;;;1.70;100.00
43818;BME280;29868;47.360;18.984;2023-01-27T22:45:20;100375.09;;;1.65;100.00
43818;BME280;29868;47.360;18.984;2023-01-27T22:47:46;100379.81;;;1.74;100.00
43818;BME280;29868;47.360;18.984;2023-01-27T22:50:14;100378.94;;;1.74;100.00
43818;BME280;29868;47.360;18.984;2023-01-27T22:52:39;100374.38;;;1.68;100.00
43818;BME280;29868;47.360;18.984;2023-01-27T22:55:07;100374.06;;;1.62;100.00
43818;BME280;29868;47.360;18.984;2023-01-27T22:57:33;100380.31;;;1.67;100.00
43818;BME280;29868;47.360;18.984;2023-01-27T22:59:58;100384.25;;;1.60;100.00
43818;BME280;29868;47.360;18.984;2023-01-27T23:02:25;100377.09;;;1.55;100.00
43818;BME280;29868;47.360;18.984;2023-01-27T23:04:52;100376.78;;;1.65;100.00
43818;BME280;29868;47.360;18.984;2023-01-27T23:07:18;100375.94;;;1.48;100.00
43818;BME280;29868;47.360;18.984;2023-01-27T23:09:43;100372.25;;;1.59;100.00
43818;BME280;29868;47.360;18.984;2023-01-27T23:12:09;100373.19;;;1.61;100.00
43818;BME280;29868;47.360;18.984;2023-01-27T23:14:34;100363.75;;;1.60;100.00
43818;BME280;29868;47.360;18.984;2023-01-27T23:17:00;100375.03;;;1.64;100.00
43818;BME280;29868;47.360;18.984;2023-01-27T23:19:25;100371.59;;;1.63;100.00
43818;BME280;29868;47.360;18.984;2023-01-27T23:21:50;100370.69;;;1.63;100.00
43818;BME280;29868;47.360;18.984;2023-01-27T23:24:16;100367.91;;;1.58;100.00
43818;BME280;29868;47.360;18.984;2023-01-27T23:26:41;100379.69;;;1.71;100.00
43818;BME280;29868;47.360;18.984;2023-01-27T23:29:07;100379.41;;;1.66;100.00
43818;BME280;29868;47.360;18.984;2023-01-27T23:31:33;100367.13;;;1.59;100.00
43818;BME280;29868;47.360;18.984;2023-01-27T23:33:58;100366.00;;;1.54;100.00
43818;BME280;29868;47.360;18.984;2023-01-27T23:36:23;100367.66;;;1.54;100.00
43818;BME280;29868;47.360;18.984;2023-01-27T23:38:50;100364.78;;;1.48;100.00
43818;BME280;29868;47.360;18.984;2023-01-27T23:41:16;100371.44;;;1.60;100.00
43818;BME280;29868;47.360;18.984;2023-01-27T23:43:53;100380.06;;;1.62;100.00
43818;BME280;29868;47.360;18.984;2023-01-27T23:46:23;100373.78;;;1.56;100.00
43818;BME280;29868;47.360;18.984;2023-01-27T23:48:50;100373.13;;;1.60;100.00
43818;BME280;29868;47.360;18.984;2023-01-27T23:51:16;100372.78;;;1.54;100.00
43818;BME280;29868;47.360;18.984;2023-01-27T23:53:42;100380.06;;;1.62;100.00
43818;BME280;29868;47.360;18.984;2023-01-27T23:56:10;100381.84;;;1.63;100.00
43818;BME280;29868;47.360;18.984;2023-01-27T23:58:36;100378.47;;;1.64;100.00
